SHT9J EGPH-EGLL
Flight info
| Callsign | SHT9J |
|---|---|
| Flight time | 0h 58m |
| Altitude | 33000 |
| Route | GOSAM P600 FENIK L612 NAVSO DCT AKOMU DCT VAMEB DCT NUGRA |
| Aircraft | A20N/M-SDE2E3FGHIRWXY/LB1 |
Departure
| Time | 2026-05-07 10:46 |
|---|---|
| Airport | Edinburgh Airport (EGPH) |
Arrival
| Time | 2026-05-07 11:45 |
|---|---|
| Airport | London Heathrow Airport (EGLL) |
| Time | Latitude | Longitude | Altitude | Speed | Heading |
|---|---|---|---|---|---|
| 2026-05-07 10:19 | 55.94861 | -3.36612 | 103 ft | 0 kts | 146° |
| 2026-05-07 10:33 | 55.94863 | -3.36614 | 103 ft | 1 kts | 146° |
| 2026-05-07 10:33 | 55.94875 | -3.36629 | 103 ft | 2 kts | 145° |
| 2026-05-07 10:34 | 55.94888 | -3.36644 | 103 ft | 2 kts | 146° |
| 2026-05-07 10:34 | 55.94900 | -3.36659 | 103 ft | 2 kts | 146° |
| 2026-05-07 10:34 | 55.94911 | -3.36673 | 103 ft | 1 kts | 162° |
| 2026-05-07 10:34 | 55.94923 | -3.36670 | 103 ft | 1 kts | 223° |
| 2026-05-07 10:35 | 55.94927 | -3.36661 | 103 ft | 1 kts | 249° |
| 2026-05-07 10:35 | 55.94929 | -3.36653 | 103 ft | 0 kts | 240° |
| 2026-05-07 10:38 | 55.94923 | -3.36672 | 103 ft | 2 kts | 238° |
| 2026-05-07 10:38 | 55.94903 | -3.36729 | 102 ft | 8 kts | 238° |
| 2026-05-07 10:39 | 55.94910 | -3.36822 | 101 ft | 9 kts | 329° |
| 2026-05-07 10:39 | 55.94970 | -3.36763 | 101 ft | 12 kts | 60° |
| 2026-05-07 10:39 | 55.95013 | -3.36636 | 103 ft | 12 kts | 58° |
| 2026-05-07 10:39 | 55.95065 | -3.36484 | 103 ft | 15 kts | 60° |
| 2026-05-07 10:40 | 55.95126 | -3.36302 | 103 ft | 18 kts | 59° |
| 2026-05-07 10:40 | 55.95195 | -3.36099 | 103 ft | 20 kts | 59° |
| 2026-05-07 10:40 | 55.95272 | -3.35872 | 103 ft | 21 kts | 59° |
| 2026-05-07 10:40 | 55.95329 | -3.35703 | 103 ft | 11 kts | 59° |
| 2026-05-07 10:41 | 55.95369 | -3.35587 | 102 ft | 11 kts | 59° |
| 2026-05-07 10:41 | 55.95406 | -3.35478 | 102 ft | 10 kts | 59° |
| 2026-05-07 10:41 | 55.95457 | -3.35403 | 102 ft | 10 kts | 359° |
| 2026-05-07 10:41 | 55.95495 | -3.35435 | 102 ft | 0 kts | 329° |
| 2026-05-07 10:42 | 55.95501 | -3.35440 | 102 ft | 3 kts | 329° |
| 2026-05-07 10:43 | 55.95539 | -3.35482 | 100 ft | 9 kts | 329° |
| 2026-05-07 10:43 | 55.95569 | -3.35570 | 100 ft | 5 kts | 240° |
| 2026-05-07 10:43 | 55.95568 | -3.35573 | 100 ft | 0 kts | 240° |
| 2026-05-07 10:45 | 55.95566 | -3.35579 | 100 ft | 2 kts | 240° |
| 2026-05-07 10:45 | 55.95433 | -3.35968 | 102 ft | 76 kts | 239° |
| 2026-05-07 10:46 | 55.95042 | -3.37121 | 101 ft | 140 kts | 239° |
| 2026-05-07 10:46 | 55.94508 | -3.38702 | 643 ft | 147 kts | 236° |
| 2026-05-07 10:46 | 55.93987 | -3.40179 | 1371 ft | 144 kts | 235° |
| 2026-05-07 10:46 | 55.93459 | -3.41683 | 2057 ft | 147 kts | 236° |
| 2026-05-07 10:47 | 55.92894 | -3.43298 | 2478 ft | 165 kts | 236° |
| 2026-05-07 10:47 | 55.92260 | -3.45123 | 2940 ft | 182 kts | 236° |
| 2026-05-07 10:47 | 55.91563 | -3.47139 | 3425 ft | 201 kts | 237° |
| 2026-05-07 10:47 | 55.90812 | -3.49341 | 3941 ft | 221 kts | 240° |
| 2026-05-07 10:48 | 55.90248 | -3.51988 | 4629 ft | 237 kts | 256° |
| 2026-05-07 10:48 | 55.89959 | -3.54934 | 5122 ft | 252 kts | 259° |
| 2026-05-07 10:48 | 55.89683 | -3.58052 | 5372 ft | 254 kts | 259° |
| 2026-05-07 10:48 | 55.89396 | -3.61162 | 5770 ft | 258 kts | 259° |
| 2026-05-07 10:49 | 55.89182 | -3.64333 | 6023 ft | 261 kts | 268° |
| 2026-05-07 10:49 | 55.89302 | -3.67546 | 6522 ft | 261 kts | 273° |
| 2026-05-07 10:49 | 55.89508 | -3.70708 | 7590 ft | 260 kts | 274° |
| 2026-05-07 10:49 | 55.89725 | -3.73784 | 8877 ft | 249 kts | 274° |
| 2026-05-07 10:50 | 55.89942 | -3.76725 | 9997 ft | 243 kts | 274° |
| 2026-05-07 10:50 | 55.90168 | -3.79790 | 10603 ft | 258 kts | 274° |
| 2026-05-07 10:50 | 55.90321 | -3.83024 | 11097 ft | 274 kts | 263° |
| 2026-05-07 10:50 | 55.89664 | -3.86237 | 11553 ft | 288 kts | 231° |
| 2026-05-07 10:51 | 55.88044 | -3.88421 | 12047 ft | 304 kts | 201° |
| 2026-05-07 10:51 | 55.85954 | -3.89256 | 12533 ft | 321 kts | 191° |
| 2026-05-07 10:51 | 55.83687 | -3.89976 | 12940 ft | 339 kts | 192° |
| 2026-05-07 10:51 | 55.81345 | -3.90898 | 13520 ft | 349 kts | 196° |
| 2026-05-07 10:52 | 55.79035 | -3.92077 | 14302 ft | 352 kts | 197° |
| 2026-05-07 10:52 | 55.76680 | -3.93303 | 15087 ft | 356 kts | 198° |
| 2026-05-07 10:52 | 55.74307 | -3.94551 | 15816 ft | 360 kts | 198° |
| 2026-05-07 10:52 | 55.71893 | -3.95827 | 16532 ft | 364 kts | 198° |
| 2026-05-07 10:53 | 55.69468 | -3.97110 | 17227 ft | 368 kts | 198° |
| 2026-05-07 10:53 | 55.67037 | -3.98395 | 17892 ft | 372 kts | 198° |
| 2026-05-07 10:53 | 55.64561 | -3.99702 | 18554 ft | 376 kts | 198° |
| 2026-05-07 10:53 | 55.62034 | -4.01038 | 19198 ft | 380 kts | 198° |
| 2026-05-07 10:54 | 55.59515 | -4.02378 | 19813 ft | 384 kts | 198° |
| 2026-05-07 10:54 | 55.56951 | -4.03740 | 20435 ft | 388 kts | 199° |
| 2026-05-07 10:54 | 55.54372 | -4.05111 | 21036 ft | 391 kts | 198° |
| 2026-05-07 10:54 | 55.51729 | -4.06267 | 21607 ft | 397 kts | 189° |
| 2026-05-07 10:55 | 55.48966 | -4.06154 | 22143 ft | 405 kts | 172° |
| 2026-05-07 10:55 | 55.46287 | -4.04632 | 22718 ft | 412 kts | 156° |
| 2026-05-07 10:55 | 55.43747 | -4.02237 | 23290 ft | 416 kts | 153° |
| 2026-05-07 10:55 | 55.41226 | -3.99747 | 23780 ft | 421 kts | 153° |
| 2026-05-07 10:56 | 55.38663 | -3.97215 | 24178 ft | 424 kts | 153° |
| 2026-05-07 10:56 | 55.36083 | -3.94691 | 24438 ft | 426 kts | 153° |
| 2026-05-07 10:56 | 55.33500 | -3.92179 | 24691 ft | 427 kts | 153° |
| 2026-05-07 10:56 | 55.30890 | -3.89656 | 24914 ft | 428 kts | 153° |
| 2026-05-07 10:57 | 55.28280 | -3.87141 | 24945 ft | 428 kts | 153° |
| 2026-05-07 10:57 | 55.25661 | -3.84626 | 24956 ft | 428 kts | 153° |
| 2026-05-07 10:57 | 55.23053 | -3.82127 | 24961 ft | 428 kts | 153° |
| 2026-05-07 10:57 | 55.20406 | -3.79778 | 24964 ft | 427 kts | 156° |
| 2026-05-07 10:58 | 55.17768 | -3.77519 | 24969 ft | 427 kts | 155° |
| 2026-05-07 10:58 | 55.15104 | -3.75227 | 24972 ft | 428 kts | 155° |
| 2026-05-07 10:58 | 55.12441 | -3.72939 | 25165 ft | 433 kts | 155° |
| 2026-05-07 10:58 | 55.09730 | -3.70612 | 25718 ft | 434 kts | 155° |
| 2026-05-07 10:59 | 55.07039 | -3.68304 | 26307 ft | 433 kts | 155° |
| 2026-05-07 10:59 | 55.04353 | -3.66005 | 26960 ft | 431 kts | 155° |
| 2026-05-07 10:59 | 55.01665 | -3.63708 | 27576 ft | 429 kts | 155° |
| 2026-05-07 10:59 | 54.99005 | -3.61440 | 28146 ft | 428 kts | 155° |
| 2026-05-07 11:00 | 54.96351 | -3.59179 | 28707 ft | 427 kts | 155° |
| 2026-05-07 11:00 | 54.93718 | -3.56939 | 29255 ft | 426 kts | 155° |
| 2026-05-07 11:00 | 54.91066 | -3.54688 | 29812 ft | 424 kts | 155° |
| 2026-05-07 11:00 | 54.88432 | -3.52457 | 30343 ft | 423 kts | 155° |
| 2026-05-07 11:01 | 54.85791 | -3.50234 | 30873 ft | 422 kts | 155° |
| 2026-05-07 11:01 | 54.83173 | -3.48033 | 31375 ft | 422 kts | 155° |
| 2026-05-07 11:01 | 54.80614 | -3.45881 | 31791 ft | 422 kts | 155° |
| 2026-05-07 11:01 | 54.77989 | -3.43674 | 32163 ft | 424 kts | 155° |
| 2026-05-07 11:02 | 54.75435 | -3.41529 | 32495 ft | 426 kts | 155° |
| 2026-05-07 11:02 | 54.72790 | -3.39307 | 32814 ft | 427 kts | 155° |
| 2026-05-07 11:02 | 54.70123 | -3.37069 | 32973 ft | 429 kts | 155° |
| 2026-05-07 11:02 | 54.67537 | -3.34902 | 32977 ft | 430 kts | 155° |
| 2026-05-07 11:03 | 54.62193 | -3.30407 | 32978 ft | 430 kts | 155° |
| 2026-05-07 11:03 | 54.56840 | -3.25925 | 32974 ft | 430 kts | 155° |
| 2026-05-07 11:04 | 54.51450 | -3.21435 | 32969 ft | 430 kts | 155° |
| 2026-05-07 11:04 | 54.46098 | -3.16996 | 32970 ft | 430 kts | 155° |
| 2026-05-07 11:05 | 54.40737 | -3.12565 | 32976 ft | 430 kts | 155° |
| 2026-05-07 11:05 | 54.35341 | -3.08115 | 32977 ft | 430 kts | 155° |
| 2026-05-07 11:06 | 54.30006 | -3.03728 | 32986 ft | 430 kts | 155° |
| 2026-05-07 11:06 | 54.24622 | -2.99310 | 32989 ft | 430 kts | 155° |
| 2026-05-07 11:07 | 54.19226 | -2.94902 | 32997 ft | 430 kts | 155° |
| 2026-05-07 11:07 | 54.13822 | -2.90795 | 33003 ft | 430 kts | 157° |
| 2026-05-07 11:08 | 54.08337 | -2.86783 | 33010 ft | 430 kts | 157° |
| 2026-05-07 11:08 | 54.02883 | -2.82812 | 33016 ft | 429 kts | 157° |
| 2026-05-07 11:09 | 53.97333 | -2.79359 | 33013 ft | 429 kts | 162° |
| 2026-05-07 11:09 | 53.91649 | -2.76367 | 33017 ft | 429 kts | 162° |
| 2026-05-07 11:10 | 53.85997 | -2.73387 | 33019 ft | 429 kts | 162° |
| 2026-05-07 11:10 | 53.80314 | -2.70403 | 33019 ft | 429 kts | 162° |
| 2026-05-07 11:11 | 53.74648 | -2.67428 | 33020 ft | 429 kts | 162° |
| 2026-05-07 11:11 | 53.68953 | -2.64445 | 33022 ft | 429 kts | 162° |
| 2026-05-07 11:12 | 53.63275 | -2.61476 | 33021 ft | 429 kts | 162° |
| 2026-05-07 11:12 | 53.57637 | -2.58536 | 33021 ft | 429 kts | 162° |
| 2026-05-07 11:13 | 53.51958 | -2.55583 | 33022 ft | 429 kts | 161° |
| 2026-05-07 11:13 | 53.46270 | -2.52633 | 33026 ft | 429 kts | 161° |
| 2026-05-07 11:14 | 53.40585 | -2.49692 | 33027 ft | 429 kts | 161° |
| 2026-05-07 11:14 | 53.34906 | -2.46762 | 33028 ft | 429 kts | 161° |
| 2026-05-07 11:15 | 53.29239 | -2.43846 | 33032 ft | 429 kts | 161° |
| 2026-05-07 11:15 | 53.23544 | -2.40922 | 33031 ft | 429 kts | 161° |
| 2026-05-07 11:16 | 53.17849 | -2.38002 | 33028 ft | 429 kts | 161° |
| 2026-05-07 11:16 | 53.12172 | -2.35104 | 33027 ft | 429 kts | 161° |
| 2026-05-07 11:17 | 53.06558 | -2.32042 | 33020 ft | 428 kts | 158° |
| 2026-05-07 11:17 | 53.01138 | -2.28074 | 33018 ft | 428 kts | 152° |
| 2026-05-07 11:18 | 52.95998 | -2.23133 | 33021 ft | 429 kts | 146° |
| 2026-05-07 11:18 | 52.90980 | -2.17853 | 33022 ft | 429 kts | 146° |
| 2026-05-07 11:19 | 52.85999 | -2.12664 | 33022 ft | 429 kts | 147° |
| 2026-05-07 11:19 | 52.80975 | -2.07451 | 33012 ft | 429 kts | 147° |
| 2026-05-07 11:20 | 52.78435 | -2.04817 | 32348 ft | 434 kts | 147° |
| 2026-05-07 11:20 | 52.75902 | -2.02188 | 31586 ft | 434 kts | 147° |
| 2026-05-07 11:20 | 52.73369 | -1.99562 | 30851 ft | 434 kts | 147° |
| 2026-05-07 11:20 | 52.70817 | -1.96920 | 30100 ft | 433 kts | 147° |
| 2026-05-07 11:21 | 52.68315 | -1.94331 | 29375 ft | 432 kts | 147° |
| 2026-05-07 11:21 | 52.65776 | -1.91708 | 28625 ft | 431 kts | 147° |
| 2026-05-07 11:21 | 52.63225 | -1.89076 | 27869 ft | 431 kts | 147° |
| 2026-05-07 11:21 | 52.60702 | -1.86476 | 27106 ft | 431 kts | 147° |
| 2026-05-07 11:22 | 52.58201 | -1.83903 | 26324 ft | 431 kts | 147° |
| 2026-05-07 11:22 | 52.55654 | -1.81286 | 25724 ft | 426 kts | 147° |
| 2026-05-07 11:22 | 52.53196 | -1.78764 | 25203 ft | 420 kts | 147° |
| 2026-05-07 11:22 | 52.50763 | -1.76270 | 24683 ft | 416 kts | 147° |
| 2026-05-07 11:23 | 52.48364 | -1.73814 | 24173 ft | 411 kts | 147° |
| 2026-05-07 11:23 | 52.45952 | -1.71348 | 23677 ft | 406 kts | 148° |
| 2026-05-07 11:23 | 52.43565 | -1.68911 | 23169 ft | 403 kts | 148° |
| 2026-05-07 11:23 | 52.41219 | -1.66517 | 22667 ft | 399 kts | 148° |
| 2026-05-07 11:24 | 52.38902 | -1.64157 | 22166 ft | 396 kts | 148° |
| 2026-05-07 11:24 | 52.36577 | -1.61790 | 21657 ft | 393 kts | 148° |
| 2026-05-07 11:24 | 52.34271 | -1.59445 | 21170 ft | 390 kts | 148° |
| 2026-05-07 11:24 | 52.31984 | -1.57122 | 20678 ft | 387 kts | 148° |
| 2026-05-07 11:25 | 52.29699 | -1.54805 | 20402 ft | 376 kts | 148° |
| 2026-05-07 11:25 | 52.27527 | -1.52606 | 20265 ft | 363 kts | 148° |
| 2026-05-07 11:25 | 52.25424 | -1.50480 | 20130 ft | 350 kts | 148° |
| 2026-05-07 11:25 | 52.23398 | -1.48431 | 20055 ft | 335 kts | 148° |
| 2026-05-07 11:26 | 52.21540 | -1.46366 | 20045 ft | 320 kts | 144° |
| 2026-05-07 11:26 | 52.19835 | -1.44169 | 20027 ft | 306 kts | 140° |
| 2026-05-07 11:26 | 52.18259 | -1.41966 | 19995 ft | 293 kts | 140° |
| 2026-05-07 11:26 | 52.16737 | -1.39831 | 19763 ft | 287 kts | 140° |
| 2026-05-07 11:27 | 52.15231 | -1.37723 | 19384 ft | 287 kts | 140° |
| 2026-05-07 11:27 | 52.13711 | -1.35598 | 19021 ft | 286 kts | 140° |
| 2026-05-07 11:27 | 52.12231 | -1.33528 | 18684 ft | 285 kts | 140° |
| 2026-05-07 11:27 | 52.10728 | -1.31420 | 18342 ft | 284 kts | 141° |
| 2026-05-07 11:28 | 52.09255 | -1.29360 | 18006 ft | 282 kts | 141° |
| 2026-05-07 11:28 | 52.07765 | -1.27282 | 17678 ft | 280 kts | 141° |
| 2026-05-07 11:28 | 52.06295 | -1.25238 | 17351 ft | 279 kts | 141° |
| 2026-05-07 11:28 | 52.04816 | -1.23185 | 17031 ft | 277 kts | 141° |
| 2026-05-07 11:29 | 52.03360 | -1.21165 | 16700 ft | 275 kts | 141° |
| 2026-05-07 11:29 | 52.01916 | -1.19164 | 16376 ft | 274 kts | 141° |
| 2026-05-07 11:29 | 52.00488 | -1.17189 | 16056 ft | 272 kts | 141° |
| 2026-05-07 11:29 | 51.99054 | -1.15207 | 15742 ft | 270 kts | 140° |
| 2026-05-07 11:30 | 51.97641 | -1.13255 | 15432 ft | 268 kts | 141° |
| 2026-05-07 11:30 | 51.96229 | -1.11306 | 15137 ft | 266 kts | 141° |
| 2026-05-07 11:30 | 51.94807 | -1.09345 | 15064 ft | 268 kts | 141° |
| 2026-05-07 11:30 | 51.93395 | -1.07399 | 14954 ft | 266 kts | 141° |
| 2026-05-07 11:31 | 51.91993 | -1.05469 | 14618 ft | 265 kts | 140° |
| 2026-05-07 11:31 | 51.90587 | -1.03535 | 14237 ft | 265 kts | 140° |
| 2026-05-07 11:31 | 51.89202 | -1.01635 | 13900 ft | 264 kts | 141° |
| 2026-05-07 11:31 | 51.87809 | -0.99739 | 13570 ft | 262 kts | 141° |
| 2026-05-07 11:32 | 51.85184 | -0.95739 | 12886 ft | 261 kts | 126° |
| 2026-05-07 11:32 | 51.84272 | -0.93247 | 12566 ft | 260 kts | 117° |
| 2026-05-07 11:32 | 51.83478 | -0.90648 | 12219 ft | 259 kts | 116° |
| 2026-05-07 11:33 | 51.82704 | -0.88054 | 11881 ft | 258 kts | 116° |
| 2026-05-07 11:33 | 51.81927 | -0.85460 | 11546 ft | 257 kts | 116° |
| 2026-05-07 11:33 | 51.81136 | -0.82843 | 11216 ft | 256 kts | 116° |
| 2026-05-07 11:33 | 51.80359 | -0.80288 | 10887 ft | 255 kts | 116° |
| 2026-05-07 11:34 | 51.79579 | -0.77730 | 10556 ft | 253 kts | 116° |
| 2026-05-07 11:34 | 51.78807 | -0.75208 | 10235 ft | 252 kts | 116° |
| 2026-05-07 11:34 | 51.78027 | -0.72666 | 9906 ft | 250 kts | 116° |
| 2026-05-07 11:34 | 51.77268 | -0.70191 | 9588 ft | 249 kts | 116° |
| 2026-05-07 11:35 | 51.76490 | -0.67663 | 9260 ft | 249 kts | 116° |
| 2026-05-07 11:35 | 51.75721 | -0.65168 | 8931 ft | 248 kts | 116° |
| 2026-05-07 11:35 | 51.74956 | -0.62690 | 8600 ft | 247 kts | 116° |
| 2026-05-07 11:35 | 51.74198 | -0.60233 | 8262 ft | 247 kts | 116° |
| 2026-05-07 11:36 | 51.73433 | -0.57759 | 7934 ft | 246 kts | 116° |
| 2026-05-07 11:36 | 51.72447 | -0.55560 | 7578 ft | 246 kts | 144° |
| 2026-05-07 11:36 | 51.70869 | -0.54671 | 7274 ft | 240 kts | 178° |
| 2026-05-07 11:36 | 51.69266 | -0.55056 | 7069 ft | 236 kts | 207° |
| 2026-05-07 11:37 | 51.67908 | -0.56493 | 7069 ft | 238 kts | 218° |
| 2026-05-07 11:37 | 51.66618 | -0.58199 | 7061 ft | 239 kts | 220° |
| 2026-05-07 11:37 | 51.65361 | -0.59928 | 7055 ft | 239 kts | 221° |
| 2026-05-07 11:37 | 51.64106 | -0.61659 | 6927 ft | 237 kts | 221° |
| 2026-05-07 11:38 | 51.62838 | -0.63396 | 6421 ft | 245 kts | 221° |
| 2026-05-07 11:38 | 51.61524 | -0.65193 | 5770 ft | 258 kts | 220° |
| 2026-05-07 11:38 | 51.60159 | -0.67073 | 5390 ft | 257 kts | 221° |
| 2026-05-07 11:38 | 51.58833 | -0.68910 | 5225 ft | 249 kts | 221° |
| 2026-05-07 11:39 | 51.57552 | -0.70689 | 5062 ft | 240 kts | 221° |
| 2026-05-07 11:39 | 51.56359 | -0.72349 | 4863 ft | 235 kts | 221° |
| 2026-05-07 11:39 | 51.55128 | -0.74072 | 4562 ft | 234 kts | 221° |
| 2026-05-07 11:39 | 51.53901 | -0.75799 | 4248 ft | 234 kts | 221° |
| 2026-05-07 11:40 | 51.52623 | -0.77384 | 3997 ft | 230 kts | 204° |
| 2026-05-07 11:40 | 51.51082 | -0.77868 | 3988 ft | 226 kts | 172° |
| 2026-05-07 11:40 | 51.49688 | -0.77006 | 3910 ft | 214 kts | 139° |
| 2026-05-07 11:40 | 51.48822 | -0.75170 | 3797 ft | 204 kts | 116° |
| 2026-05-07 11:41 | 51.48268 | -0.73195 | 3632 ft | 195 kts | 111° |
| 2026-05-07 11:41 | 51.47885 | -0.71210 | 3526 ft | 177 kts | 102° |
| 2026-05-07 11:41 | 51.47716 | -0.69283 | 3164 ft | 176 kts | 94° |
| 2026-05-07 11:41 | 51.47691 | -0.67302 | 2946 ft | 179 kts | 89° |
| 2026-05-07 11:42 | 51.47710 | -0.65340 | 2515 ft | 174 kts | 89° |
| 2026-05-07 11:42 | 51.47728 | -0.63424 | 2005 ft | 176 kts | 89° |
| 2026-05-07 11:42 | 51.47749 | -0.61489 | 1707 ft | 163 kts | 89° |
| 2026-05-07 11:42 | 51.47745 | -0.59715 | 1479 ft | 159 kts | 91° |
| 2026-05-07 11:43 | 51.47731 | -0.57982 | 1236 ft | 150 kts | 91° |
| 2026-05-07 11:43 | 51.47723 | -0.56395 | 1005 ft | 137 kts | 90° |
| 2026-05-07 11:43 | 51.47731 | -0.54911 | 803 ft | 132 kts | 90° |
| 2026-05-07 11:43 | 51.47735 | -0.53451 | 690 ft | 131 kts | 90° |
| 2026-05-07 11:44 | 51.47739 | -0.51979 | 531 ft | 131 kts | 90° |
| 2026-05-07 11:44 | 51.47740 | -0.50514 | 347 ft | 130 kts | 90° |
| 2026-05-07 11:44 | 51.47749 | -0.49079 | 172 ft | 130 kts | 90° |
| 2026-05-07 11:44 | 51.47752 | -0.47655 | 78 ft | 120 kts | 89° |
| 2026-05-07 11:45 | 51.47756 | -0.46646 | 78 ft | 67 kts | 89° |
| 2026-05-07 11:45 | 51.47754 | -0.46227 | 77 ft | 18 kts | 109° |
| 2026-05-07 11:45 | 51.47685 | -0.46126 | 77 ft | 12 kts | 144° |
| 2026-05-07 11:45 | 51.47643 | -0.46079 | 77 ft | 5 kts | 145° |
| 2026-05-07 11:46 | 51.47606 | -0.46062 | 77 ft | 6 kts | 206° |
| 2026-05-07 11:46 | 51.47593 | -0.46119 | 77 ft | 0 kts | 270° |
| 2026-05-07 11:47 | 51.47594 | -0.46133 | 77 ft | 2 kts | 270° |
| 2026-05-07 11:47 | 51.47594 | -0.46185 | 77 ft | 6 kts | 270° |
| 2026-05-07 11:47 | 51.47593 | -0.46275 | 77 ft | 9 kts | 269° |
| 2026-05-07 11:47 | 51.47593 | -0.46401 | 77 ft | 12 kts | 269° |
| 2026-05-07 11:48 | 51.47591 | -0.46560 | 77 ft | 15 kts | 268° |
| 2026-05-07 11:48 | 51.47588 | -0.46744 | 77 ft | 17 kts | 267° |
| 2026-05-07 11:48 | 51.47582 | -0.46941 | 77 ft | 17 kts | 265° |
| 2026-05-07 11:48 | 51.47581 | -0.47140 | 77 ft | 18 kts | 269° |
| 2026-05-07 11:49 | 51.47580 | -0.47345 | 77 ft | 18 kts | 269° |
| 2026-05-07 11:49 | 51.47579 | -0.47547 | 77 ft | 18 kts | 270° |
| 2026-05-07 11:49 | 51.47579 | -0.47752 | 77 ft | 18 kts | 269° |
| 2026-05-07 11:49 | 51.47577 | -0.47963 | 77 ft | 18 kts | 269° |
| 2026-05-07 11:50 | 51.47577 | -0.48173 | 77 ft | 19 kts | 270° |
| 2026-05-07 11:50 | 51.47577 | -0.48344 | 77 ft | 13 kts | 269° |
| 2026-05-07 11:50 | 51.47570 | -0.48461 | 77 ft | 10 kts | 236° |
| 2026-05-07 11:50 | 51.47498 | -0.48481 | 77 ft | 11 kts | 202° |
| 2026-05-07 11:51 | 51.47486 | -0.48601 | 77 ft | 12 kts | 269° |
| 2026-05-07 11:51 | 51.47486 | -0.48741 | 77 ft | 13 kts | 269° |
| 2026-05-07 11:51 | 51.47487 | -0.48868 | 77 ft | 7 kts | 266° |
| 2026-05-07 11:51 | 51.47442 | -0.48891 | 77 ft | 8 kts | 178° |
| 2026-05-07 11:52 | 51.47413 | -0.48891 | 77 ft | 2 kts | 178° |
| 2026-05-07 11:52 | 51.47406 | -0.48891 | 77 ft | 0 kts | 179° |